createdAt,value
2019-04-06T00:00:00.975Z,99.0
2019-04-06T00:05:00.742Z,99.0
2019-04-06T00:15:06.111Z,99.0
2019-04-06T00:20:00.732Z,99.0
2019-04-06T00:25:00.774Z,99.0
2019-04-06T00:30:00.950Z,99.0
2019-04-06T00:35:01.408Z,99.0
2019-04-06T00:40:00.748Z,99.0
2019-04-06T00:45:02.265Z,99.0
2019-04-06T00:50:00.763Z,99.0
2019-04-06T00:55:00.850Z,99.0
2019-04-06T01:00:01.013Z,99.0
2019-04-06T01:05:00.818Z,99.0
2019-04-06T01:10:00.778Z,99.0
2019-04-06T01:15:01.071Z,99.0
2019-04-06T01:20:00.718Z,99.0
2019-04-06T01:30:01.078Z,99.0
2019-04-06T01:40:00.925Z,99.0
2019-04-06T01:45:01.079Z,99.0
2019-04-06T01:50:00.894Z,99.0
2019-04-06T01:55:00.826Z,99.0
2019-04-06T02:00:01.007Z,99.0
2019-04-06T02:05:01.018Z,99.0
2019-04-06T02:10:00.819Z,99.0
2019-04-06T02:15:06.272Z,99.0
2019-04-06T02:30:01.272Z,99.0
2019-04-06T02:45:01.082Z,99.0
2019-04-06T03:00:01.348Z,99.0
2019-04-06T03:15:01.277Z,99.0
2019-04-06T03:30:01.247Z,99.0
2019-04-06T03:45:01.950Z,99.0
2019-04-06T03:55:00.927Z,99.0
2019-04-06T04:00:00.975Z,99.0
2019-04-06T04:10:01.444Z,99.0
2019-04-06T04:15:00.931Z,99.0
2019-04-06T04:20:01.247Z,99.0
2019-04-06T04:25:00.980Z,99.0
2019-04-06T04:30:01.183Z,99.0
2019-04-06T04:35:01.323Z,99.0
2019-04-06T04:40:01.118Z,99.0
2019-04-06T04:45:00.961Z,99.0
2019-04-06T04:55:00.954Z,99.0
2019-04-06T05:00:01.046Z,99.0
2019-04-06T05:10:00.963Z,99.0
2019-04-06T05:15:05.942Z,99.0
2019-04-06T05:25:03.319Z,99.0
2019-04-06T05:30:01.237Z,99.0
2019-04-06T05:35:01.075Z,99.0
2019-04-06T05:40:00.954Z,99.0
2019-04-06T05:45:01.003Z,99.0
2019-04-06T05:50:01.143Z,99.0
2019-04-06T05:55:00.941Z,99.0
2019-04-06T06:00:01.876Z,99.0
2019-04-06T06:05:01.909Z,99.0
2019-04-06T06:10:01.275Z,99.0
2019-04-06T06:15:01.203Z,99.0
2019-04-06T06:20:00.956Z,99.0
2019-04-06T06:25:01.057Z,99.0
2019-04-06T06:30:01.358Z,99.0
2019-04-06T06:35:01.217Z,99.0
2019-04-06T06:40:00.820Z,99.0
2019-04-06T06:45:01.343Z,99.0
2019-04-06T06:50:01.084Z,99.0
2019-04-06T06:55:01.078Z,99.0
2019-04-06T07:00:01.117Z,99.0
2019-04-06T07:05:01.113Z,99.0
2019-04-06T07:10:06.722Z,99.0
2019-04-06T07:15:01.223Z,99.0
2019-04-06T07:20:01.130Z,98.74
2019-04-06T07:25:00.880Z,98.74
2019-04-06T07:30:01.250Z,97.68
2019-04-06T07:35:00.915Z,97.68
2019-04-06T07:40:00.902Z,96.01
2019-04-06T07:45:01.113Z,96.01
2019-04-06T07:50:00.841Z,93.09
2019-04-06T07:55:01.607Z,93.09
2019-04-06T08:00:01.296Z,91.07
2019-04-06T08:05:00.998Z,91.07
2019-04-06T08:10:01.105Z,88.63
2019-04-06T08:15:01.509Z,88.63
2019-04-06T08:20:00.849Z,87.72
2019-04-06T08:25:00.944Z,87.72
2019-04-06T08:30:02.686Z,85.26
2019-04-06T08:35:01.082Z,85.26
2019-04-06T08:40:01.113Z,83.2
2019-04-06T08:45:01.402Z,83.2
2019-04-06T08:50:00.884Z,81.96
2019-04-06T08:55:00.997Z,81.96
2019-04-06T09:00:01.337Z,81.66
2019-04-06T09:05:01.164Z,81.66
2019-04-06T09:10:01.480Z,80.83
2019-04-06T09:15:01.265Z,80.83
2019-04-06T09:20:05.888Z,80.6
2019-04-06T09:25:06.028Z,80.6
2019-04-06T09:30:06.242Z,79.04
2019-04-06T09:40:01.278Z,77.13
2019-04-06T09:45:01.265Z,77.13
2019-04-06T09:50:01.155Z,76.71
2019-04-06T09:55:01.041Z,76.71
2019-04-06T10:00:01.296Z,77.32
2019-04-06T10:05:01.239Z,77.32
2019-04-06T10:10:00.959Z,73.45
2019-04-06T10:15:01.139Z,73.45
2019-04-06T10:20:01.172Z,71.98
2019-04-06T10:25:01.042Z,71.98
2019-04-06T10:30:01.195Z,72.14
2019-04-06T10:35:01.030Z,72.14
2019-04-06T10:40:00.953Z,70.63
2019-04-06T10:45:01.878Z,70.63
2019-04-06T10:50:00.936Z,68.15
2019-04-06T10:55:01.057Z,68.15
2019-04-06T11:00:03.978Z,68.03
2019-04-06T11:05:00.975Z,68.03
2019-04-06T11:15:01.660Z,66.94
2019-04-06T11:30:15.609Z,65.88
2019-04-06T11:35:01.675Z,65.88
2019-04-06T11:45:01.937Z,66.55
2019-04-06T11:50:00.945Z,64.47
2019-04-06T11:55:02.919Z,64.47
2019-04-06T12:00:01.202Z,63.7
2019-04-06T12:05:01.130Z,63.7
2019-04-06T12:10:00.932Z,62.94
2019-04-06T12:15:01.201Z,62.94
2019-04-06T12:25:01.043Z,62.78
2019-04-06T12:30:01.332Z,60.71
2019-04-06T12:40:01.460Z,62.24
2019-04-06T12:45:01.323Z,62.24
2019-04-06T12:50:00.991Z,61.33
2019-04-06T13:00:01.519Z,63.290000000000006
2019-04-06T13:10:01.159Z,60.31
2019-04-06T13:15:01.880Z,60.31
2019-04-06T13:20:01.409Z,62.81
2019-04-06T13:25:01.030Z,62.81
2019-04-06T13:30:06.581Z,63.260000000000005
2019-04-06T13:40:01.407Z,60.71
2019-04-06T13:45:04.243Z,60.71
2019-04-06T13:50:00.960Z,61.22
2019-04-06T13:55:01.101Z,61.22
2019-04-06T14:00:01.213Z,61.49
2019-04-06T14:05:01.094Z,61.49
2019-04-06T14:10:01.334Z,60.77
2019-04-06T14:15:01.461Z,60.77
2019-04-06T14:30:01.538Z,61.3
2019-04-06T14:40:01.407Z,61.8
2019-04-06T14:45:01.787Z,61.8
2019-04-06T14:50:02.660Z,63.959999999999994
2019-04-06T14:55:01.061Z,63.959999999999994
2019-04-06T15:00:01.890Z,63.56999999999999
2019-04-06T15:10:01.990Z,63.05
2019-04-06T15:15:01.552Z,63.05
2019-04-06T15:25:01.424Z,64.16
2019-04-06T15:30:01.153Z,63.09
2019-04-06T15:45:01.397Z,63.239999999999995
2019-04-06T16:00:01.442Z,64.37
2019-04-06T16:15:01.560Z,65.85
2019-04-06T16:20:00.987Z,64.26
2019-04-06T16:25:01.360Z,64.26
2019-04-06T16:30:01.312Z,65.8
2019-04-06T16:35:02.296Z,65.8
2019-04-06T16:40:01.490Z,64.74
2019-04-06T16:45:00.983Z,64.74
2019-04-06T16:55:01.360Z,63.93000000000001
2019-04-06T17:00:01.452Z,65.09
2019-04-06T17:05:01.503Z,65.09
2019-04-06T17:10:00.967Z,66.51
2019-04-06T17:15:06.014Z,66.51
2019-04-06T17:20:01.293Z,70.05
2019-04-06T17:25:01.059Z,70.05
2019-04-06T17:30:02.246Z,73.57
2019-04-06T17:35:01.511Z,73.57
2019-04-06T17:40:01.013Z,77.82
2019-04-06T17:45:01.622Z,77.82
2019-04-06T17:50:01.231Z,80.05
2019-04-06T17:55:01.376Z,80.05
2019-04-06T18:00:01.165Z,81.47
2019-04-06T18:05:01.392Z,81.47
2019-04-06T18:10:01.414Z,83.08
2019-04-06T18:15:01.983Z,83.08
2019-04-06T18:20:02.187Z,84.66
2019-04-06T18:25:01.481Z,84.66
2019-04-06T18:30:01.422Z,86.22
2019-04-06T18:35:01.039Z,86.22
2019-04-06T18:40:01.425Z,86.91
2019-04-06T18:45:01.495Z,86.91
2019-04-06T18:50:01.029Z,86.99
2019-04-06T18:55:01.487Z,86.99
2019-04-06T19:00:01.818Z,88.03
2019-04-06T19:05:01.050Z,88.03
2019-04-06T19:10:01.766Z,88.68
2019-04-06T19:15:01.785Z,88.68
2019-04-06T19:20:01.447Z,88.44
2019-04-06T19:25:06.304Z,88.44
2019-04-06T19:30:01.134Z,87.83
2019-04-06T19:40:02.752Z,86.9
2019-04-06T19:45:01.645Z,86.9
2019-04-06T19:50:01.703Z,86.89
2019-04-06T20:00:01.441Z,87.32
2019-04-06T20:10:01.181Z,88.35
2019-04-06T20:15:02.015Z,88.35
2019-04-06T20:20:01.105Z,88.35
2019-04-06T20:25:02.365Z,88.35
2019-04-06T20:30:02.891Z,88.58
2019-04-06T20:45:01.874Z,89.93
2019-04-06T20:50:01.927Z,89.44
2019-04-06T21:00:01.952Z,90.18
2019-04-06T21:10:06.259Z,90.21
2019-04-06T21:15:01.454Z,90.21
2019-04-06T21:20:01.893Z,90.98
2019-04-06T21:25:01.337Z,90.98
2019-04-06T21:30:01.632Z,91.57
2019-04-06T21:35:05.531Z,91.57
2019-04-06T21:40:01.396Z,92.71
2019-04-06T21:45:01.254Z,92.71
2019-04-06T22:00:02.085Z,92.85
2019-04-06T22:15:01.198Z,93.29
2019-04-06T22:25:01.932Z,93.37
2019-04-06T22:30:01.968Z,94.01
2019-04-06T22:35:01.287Z,94.01
2019-04-06T22:45:01.747Z,93.83
2019-04-06T23:00:02.077Z,94.96
2019-04-06T23:05:01.212Z,94.96
2019-04-06T23:15:02.038Z,95.02
2019-04-06T23:30:01.502Z,94.71
2019-04-06T23:45:01.242Z,94.69
2019-04-06T23:50:02.099Z,94.92
